createdAt,value
2023-02-11T00:01:00.991Z,8.50
2023-02-11T00:03:27.711Z,8.48
2023-02-11T00:06:02.622Z,8.47
2023-02-11T00:08:29.421Z,8.47
2023-02-11T00:10:57.757Z,8.48
2023-02-11T00:13:25.786Z,8.49
2023-02-11T00:15:53.238Z,8.49
2023-02-11T00:18:20.589Z,8.49
2023-02-11T00:20:47.375Z,8.47
2023-02-11T00:23:15.004Z,8.46
2023-02-11T00:25:43.451Z,8.46
2023-02-11T00:28:10.824Z,8.45
2023-02-11T00:30:38.158Z,8.45
2023-02-11T00:33:04.941Z,8.44
2023-02-11T00:35:31.720Z,8.42
2023-02-11T00:37:58.712Z,8.40
2023-02-11T00:40:25.577Z,8.40
2023-02-11T00:42:52.354Z,8.40
2023-02-11T00:45:21.376Z,8.36
2023-02-11T00:47:48.789Z,8.35
2023-02-11T00:50:15.579Z,8.34
2023-02-11T00:52:42.467Z,8.34
2023-02-11T00:55:09.371Z,8.35
2023-02-11T00:57:36.401Z,8.34
2023-02-11T01:00:05.410Z,8.35
2023-02-11T01:02:32.402Z,8.34
2023-02-11T01:05:00.179Z,8.35
2023-02-11T01:07:28.411Z,8.37
2023-02-11T01:09:55.169Z,8.36
2023-02-11T01:12:24.940Z,8.37
2023-02-11T01:14:51.919Z,8.36
2023-02-11T01:17:18.753Z,8.35
2023-02-11T01:19:45.495Z,8.35
2023-02-11T01:22:13.305Z,8.34
2023-02-11T01:24:40.065Z,8.33
2023-02-11T01:27:06.798Z,8.33
2023-02-11T01:29:33.629Z,8.34
2023-02-11T01:32:01.405Z,8.34
2023-02-11T01:34:28.282Z,8.36
2023-02-11T01:37:01.066Z,8.37
2023-02-11T01:39:27.984Z,8.37
2023-02-11T01:41:54.773Z,8.37
2023-02-11T01:44:22.702Z,8.34
2023-02-11T01:46:49.634Z,8.32
2023-02-11T01:49:25.480Z,8.29
2023-02-11T01:52:06.026Z,8.30
2023-02-11T01:54:56.461Z,8.27
2023-02-11T01:57:28.517Z,8.23
2023-02-11T02:00:04.614Z,8.20
2023-02-11T02:02:50.168Z,8.18
2023-02-11T02:05:43.354Z,8.16
2023-02-11T02:08:21.751Z,8.15
2023-02-11T02:10:54.794Z,8.11
2023-02-11T02:13:22.014Z,8.12
2023-02-11T02:16:03.497Z,8.11
2023-02-11T02:18:54.605Z,8.10
2023-02-11T02:21:45.900Z,8.10
2023-02-11T02:24:31.955Z,8.10
2023-02-11T02:27:23.499Z,8.10
2023-02-11T02:29:59.389Z,8.09
2023-02-11T02:32:44.579Z,8.09
2023-02-11T02:35:15.470Z,8.08
2023-02-11T02:37:42.429Z,8.09
2023-02-11T02:40:31.549Z,8.10
2023-02-11T02:43:00.679Z,8.12
2023-02-11T02:45:27.547Z,8.11
2023-02-11T02:47:58.551Z,8.10
2023-02-11T02:50:31.810Z,8.11
2023-02-11T02:53:26.549Z,8.11
2023-02-11T02:55:59.456Z,8.12
2023-02-11T02:59:04.678Z,8.12
2023-02-11T03:01:57.298Z,8.12
2023-02-11T03:04:36.095Z,8.10
2023-02-11T03:07:20.759Z,8.08
2023-02-11T03:10:02.552Z,8.05
2023-02-11T03:12:32.274Z,8.05
2023-02-11T03:14:59.975Z,8.05
2023-02-11T03:17:28.560Z,8.05
2023-02-11T03:19:57.159Z,8.05
2023-02-11T03:22:33.418Z,8.05
2023-02-11T03:25:02.029Z,8.04
2023-02-11T03:28:13.959Z,8.00
2023-02-11T03:30:56.430Z,7.95
2023-02-11T03:33:46.127Z,7.91
2023-02-11T03:36:18.180Z,7.86
2023-02-11T03:38:49.368Z,7.85
2023-02-11T03:41:21.206Z,7.86
2023-02-11T03:43:56.097Z,7.87
2023-02-11T03:46:33.691Z,7.87
2023-02-11T03:49:09.386Z,7.87
2023-02-11T03:51:37.662Z,7.89
2023-02-11T03:54:09.630Z,7.87
2023-02-11T03:56:46.920Z,7.87
2023-02-11T03:59:13.720Z,7.86
2023-02-11T04:01:40.824Z,7.86
2023-02-11T04:04:07.637Z,7.87
2023-02-11T04:06:35.417Z,7.86
2023-02-11T04:09:02.281Z,7.87
2023-02-11T04:11:29.002Z,7.89
2023-02-11T04:13:55.768Z,7.91
2023-02-11T04:16:22.519Z,7.91
2023-02-11T04:18:49.740Z,7.93
2023-02-11T04:21:16.486Z,7.92
2023-02-11T04:23:43.387Z,7.93
2023-02-11T04:26:10.110Z,7.94
2023-02-11T04:28:36.971Z,7.92
2023-02-11T04:31:03.824Z,7.94
2023-02-11T04:33:30.596Z,7.94
2023-02-11T04:35:57.655Z,7.96
2023-02-11T04:38:24.371Z,7.96
2023-02-11T04:40:51.364Z,7.96
2023-02-11T04:43:18.127Z,7.94
2023-02-11T04:45:44.834Z,7.96
2023-02-11T04:48:12.617Z,7.96
2023-02-11T04:50:39.418Z,7.96
2023-02-11T04:53:06.513Z,7.95
2023-02-11T04:55:33.278Z,7.97
2023-02-11T04:57:59.988Z,7.96
2023-02-11T05:00:26.704Z,7.96
2023-02-11T05:02:53.468Z,7.95
2023-02-11T05:05:20.256Z,7.95
2023-02-11T05:07:47.062Z,7.94
2023-02-11T05:10:13.900Z,7.94
2023-02-11T05:12:40.644Z,7.94
2023-02-11T05:15:07.722Z,7.94
2023-02-11T05:17:34.399Z,7.94
2023-02-11T05:20:01.447Z,7.94
2023-02-11T05:22:28.183Z,7.95
2023-02-11T05:24:54.941Z,7.94
2023-02-11T05:27:21.739Z,7.95
2023-02-11T05:29:48.612Z,7.95
2023-02-11T05:32:15.349Z,7.93
2023-02-11T05:34:42.171Z,7.94
2023-02-11T05:37:09.059Z,7.94
2023-02-11T05:39:35.939Z,7.94
2023-02-11T05:42:03.593Z,7.95
2023-02-11T05:44:30.317Z,7.95
2023-02-11T05:46:57.027Z,7.95
2023-02-11T05:49:23.787Z,7.97
2023-02-11T05:51:50.575Z,7.98
2023-02-11T05:54:17.585Z,7.99
2023-02-11T05:56:44.974Z,7.98
2023-02-11T05:59:14.611Z,7.98
2023-02-11T06:01:41.544Z,8.00
2023-02-11T06:04:08.340Z,8.01
2023-02-11T06:06:35.121Z,7.98
2023-02-11T06:09:01.879Z,8.01
2023-02-11T06:11:28.624Z,8.01
2023-02-11T06:13:55.367Z,7.99
2023-02-11T06:16:22.433Z,7.98
2023-02-11T06:18:49.214Z,7.98
2023-02-11T06:21:15.960Z,7.98
2023-02-11T06:23:43.677Z,7.97
2023-02-11T06:26:18.263Z,7.98
2023-02-11T06:28:45.672Z,7.97
2023-02-11T06:31:13.160Z,7.96
2023-02-11T06:33:40.032Z,7.97
2023-02-11T06:36:19.145Z,7.96
2023-02-11T06:38:46.803Z,7.97
2023-02-11T06:41:15.705Z,7.99
2023-02-11T06:43:43.856Z,8.02
2023-02-11T06:46:10.831Z,8.00
2023-02-11T06:48:37.646Z,7.99
2023-02-11T06:51:06.174Z,7.99
2023-02-11T06:53:36.761Z,8.02
2023-02-11T06:56:05.430Z,8.02
2023-02-11T06:58:32.984Z,8.03
2023-02-11T07:01:04.001Z,8.02
2023-02-11T07:03:30.662Z,8.02
2023-02-11T07:05:57.374Z,8.02
2023-02-11T07:08:24.170Z,8.02
2023-02-11T07:10:50.858Z,7.99
2023-02-11T07:13:17.612Z,7.99
2023-02-11T07:15:44.544Z,8.00
2023-02-11T07:18:14.291Z,7.99
2023-02-11T07:20:42.540Z,7.99
2023-02-11T07:23:09.437Z,8.02
2023-02-11T07:25:36.673Z,8.02
2023-02-11T07:28:04.587Z,8.02
2023-02-11T07:30:31.480Z,8.03
2023-02-11T07:32:58.224Z,8.02
2023-02-11T07:35:24.926Z,8.03
2023-02-11T07:37:51.666Z,8.04
2023-02-11T07:40:18.531Z,8.04
2023-02-11T07:42:46.276Z,8.04
2023-02-11T07:45:14.129Z,8.05
2023-02-11T07:47:42.830Z,8.05
2023-02-11T07:50:10.832Z,8.05
2023-02-11T07:52:37.588Z,8.06
2023-02-11T07:55:05.005Z,8.07
2023-02-11T07:57:31.882Z,8.08
2023-02-11T07:59:58.675Z,8.08
2023-02-11T08:02:25.691Z,8.09
2023-02-11T08:04:52.465Z,8.09
2023-02-11T08:07:19.905Z,8.08
2023-02-11T08:09:46.742Z,8.08
2023-02-11T08:12:13.686Z,8.10
2023-02-11T08:14:40.453Z,8.11
2023-02-11T08:17:07.204Z,8.11
2023-02-11T08:19:35.225Z,8.12
2023-02-11T08:22:02.228Z,8.13
2023-02-11T08:24:28.986Z,8.14
2023-02-11T08:26:55.776Z,8.15
2023-02-11T08:29:22.562Z,8.16
2023-02-11T08:31:49.821Z,8.17
2023-02-11T08:34:19.239Z,8.19
2023-02-11T08:36:47.452Z,8.21
2023-02-11T08:39:20.829Z,8.23
2023-02-11T08:41:50.748Z,8.24
2023-02-11T08:44:19.389Z,8.26
2023-02-11T08:46:46.587Z,8.28
2023-02-11T08:49:14.266Z,8.29
2023-02-11T08:51:41.594Z,8.31
2023-02-11T08:54:10.063Z,8.34
2023-02-11T08:56:38.255Z,8.37
2023-02-11T08:59:05.520Z,8.38
2023-02-11T09:01:33.257Z,8.41
2023-02-11T09:04:01.224Z,8.43
2023-02-11T09:06:28.792Z,8.46
2023-02-11T09:08:57.398Z,8.49
2023-02-11T09:11:33.521Z,8.51
2023-02-11T09:14:00.703Z,8.55
2023-02-11T09:16:30.130Z,8.58
2023-02-11T09:18:58.497Z,8.59
2023-02-11T09:21:25.794Z,8.62
2023-02-11T09:23:52.789Z,8.65
2023-02-11T09:26:27.987Z,8.69
2023-02-11T09:28:56.430Z,8.70
2023-02-11T09:31:25.819Z,8.74
2023-02-11T09:33:57.152Z,8.75
2023-02-11T09:36:29.696Z,8.74
2023-02-11T09:38:58.564Z,8.75
2023-02-11T09:41:56.204Z,8.77
2023-02-11T09:44:34.226Z,8.80
2023-02-11T09:47:06.626Z,8.82
2023-02-11T09:49:41.250Z,8.83
2023-02-11T09:52:32.516Z,8.85
2023-02-11T09:55:02.294Z,8.87
2023-02-11T09:57:34.210Z,8.88
2023-02-11T10:00:02.497Z,8.87
2023-02-11T10:02:50.318Z,8.86
2023-02-11T10:05:28.521Z,8.86
2023-02-11T10:08:05.380Z,8.89
2023-02-11T10:10:52.786Z,8.89
2023-02-11T10:13:28.820Z,8.91
2023-02-11T10:16:20.716Z,8.96
2023-02-11T10:18:56.248Z,9.00
2023-02-11T10:21:33.244Z,9.04
2023-02-11T10:24:10.160Z,9.08
2023-02-11T10:26:37.503Z,9.11
2023-02-11T10:29:22.035Z,9.14
2023-02-11T10:31:50.928Z,9.15
2023-02-11T10:34:17.669Z,9.18
2023-02-11T10:36:45.965Z,9.22
2023-02-11T10:39:19.717Z,9.25
2023-02-11T10:41:50.502Z,9.29
2023-02-11T10:44:43.098Z,9.32
2023-02-11T10:47:22.107Z,9.34
2023-02-11T10:49:49.980Z,9.37
2023-02-11T10:52:22.862Z,9.40
2023-02-11T10:54:57.733Z,9.44
2023-02-11T10:57:28.368Z,9.47
2023-02-11T11:00:21.236Z,9.52
2023-02-11T11:02:58.522Z,9.57
2023-02-11T11:05:59.792Z,9.61
2023-02-11T11:08:49.742Z,9.62
2023-02-11T11:11:22.300Z,9.65
2023-02-11T11:14:03.860Z,9.68
2023-02-11T11:16:36.110Z,9.69
2023-02-11T11:19:08.984Z,9.74
2023-02-11T11:21:44.747Z,9.77
2023-02-11T11:24:22.650Z,9.81
2023-02-11T11:26:59.738Z,9.82
2023-02-11T11:29:38.174Z,9.85
2023-02-11T11:32:20.789Z,9.87
2023-02-11T11:34:55.703Z,9.90
2023-02-11T11:37:34.926Z,9.93
2023-02-11T11:40:22.085Z,9.98
2023-02-11T11:43:05.585Z,10.04
2023-02-11T11:45:33.962Z,10.08
2023-02-11T11:48:21.563Z,10.17
2023-02-11T11:50:53.949Z,10.22
2023-02-11T11:53:35.738Z,10.34
2023-02-11T11:56:11.514Z,10.39
2023-02-11T11:58:38.465Z,10.44
2023-02-11T12:01:29.287Z,10.49
2023-02-11T12:04:26.985Z,10.53
2023-02-11T12:07:06.537Z,10.55
2023-02-11T12:09:45.388Z,10.58
2023-02-11T12:12:35.461Z,10.57
2023-02-11T12:15:29.674Z,10.57
2023-02-11T12:18:02.715Z,10.62
2023-02-11T12:21:04.301Z,10.65
2023-02-11T12:24:03.432Z,10.68
2023-02-11T12:26:57.959Z,10.71
2023-02-11T12:29:42.749Z,10.72
2023-02-11T12:32:27.742Z,10.76
2023-02-11T12:35:09.637Z,10.81
2023-02-11T12:37:38.982Z,10.84
2023-02-11T12:40:24.184Z,10.85
2023-02-11T12:43:18.426Z,10.84
2023-02-11T12:46:02.027Z,10.80
2023-02-11T12:48:50.635Z,10.77
2023-02-11T12:51:43.962Z,10.75
2023-02-11T12:54:11.044Z,10.75
2023-02-11T12:56:45.713Z,10.75
2023-02-11T12:59:45.213Z,10.75
2023-02-11T13:02:22.089Z,10.73
2023-02-11T13:04:56.879Z,10.73
2023-02-11T13:07:42.259Z,10.70
2023-02-11T13:10:15.656Z,10.70
2023-02-11T13:13:05.368Z,10.70
2023-02-11T13:15:33.211Z,10.72
2023-02-11T13:18:12.253Z,10.71
2023-02-11T13:20:51.525Z,10.73
2023-02-11T13:23:26.552Z,10.70
2023-02-11T13:26:23.316Z,10.67
2023-02-11T13:29:18.160Z,10.63
2023-02-11T13:31:56.253Z,10.60
2023-02-11T13:34:44.325Z,10.58
2023-02-11T13:37:48.141Z,10.56
2023-02-11T13:40:26.729Z,10.55
2023-02-11T13:43:02.734Z,10.54
2023-02-11T13:45:47.560Z,10.55
2023-02-11T13:48:17.969Z,10.56
2023-02-11T13:50:57.197Z,10.58
2023-02-11T13:53:25.079Z,10.56
2023-02-11T13:56:04.044Z,10.55
2023-02-11T13:58:30.708Z,10.55
2023-02-11T14:00:58.592Z,10.56
2023-02-11T14:03:51.261Z,10.61
2023-02-11T14:06:38.164Z,10.67
2023-02-11T14:09:11.553Z,10.75
2023-02-11T14:11:49.111Z,10.78
2023-02-11T14:14:23.922Z,10.84
2023-02-11T14:17:02.791Z,10.88
2023-02-11T14:19:39.835Z,10.93
2023-02-11T14:22:40.307Z,11.00
2023-02-11T14:25:20.487Z,11.02
2023-02-11T14:27:57.842Z,11.03
2023-02-11T14:30:27.778Z,11.02
2023-02-11T14:33:20.685Z,11.04
2023-02-11T14:36:10.570Z,11.07
2023-02-11T14:38:40.046Z,11.08
2023-02-11T14:41:26.303Z,11.08
2023-02-11T14:43:58.598Z,11.06
2023-02-11T14:46:27.858Z,11.04
2023-02-11T14:48:58.887Z,11.01
2023-02-11T14:51:35.002Z,10.99
2023-02-11T14:54:23.567Z,10.97
2023-02-11T14:57:20.248Z,10.95
2023-02-11T15:00:14.319Z,10.93
2023-02-11T15:02:43.440Z,10.89
2023-02-11T15:05:23.758Z,10.84
2023-02-11T15:07:57.829Z,10.81
2023-02-11T15:10:31.035Z,10.76
2023-02-11T15:13:01.509Z,10.75
2023-02-11T15:15:29.096Z,10.73
2023-02-11T15:17:59.969Z,10.70
2023-02-11T15:20:29.194Z,10.65
2023-02-11T15:23:01.592Z,10.61
2023-02-11T15:25:31.746Z,10.60
2023-02-11T15:27:59.800Z,10.58
2023-02-11T15:30:34.272Z,10.57
2023-02-11T15:33:06.106Z,10.54
2023-02-11T15:35:37.160Z,10.50
2023-02-11T15:38:05.086Z,10.49
2023-02-11T15:40:37.507Z,10.47
2023-02-11T15:43:09.855Z,10.46
2023-02-11T15:45:53.080Z,10.44
2023-02-11T15:48:24.332Z,10.43
2023-02-11T15:51:21.930Z,10.38
2023-02-11T15:54:00.718Z,10.37
2023-02-11T15:56:37.704Z,10.36
2023-02-11T15:59:17.201Z,10.33
2023-02-11T16:01:45.678Z,10.31
2023-02-11T16:04:22.347Z,10.28
2023-02-11T16:06:51.051Z,10.26
2023-02-11T16:09:23.824Z,10.26
2023-02-11T16:11:50.469Z,10.23
2023-02-11T16:14:29.613Z,10.21
2023-02-11T16:17:06.009Z,10.18
2023-02-11T16:19:34.898Z,10.16
2023-02-11T16:22:08.623Z,10.15
2023-02-11T16:24:37.652Z,10.13
2023-02-11T16:27:29.782Z,10.11
2023-02-11T16:29:58.460Z,10.06
2023-02-11T16:32:28.195Z,10.04
2023-02-11T16:34:58.077Z,10.03
2023-02-11T16:37:25.410Z,10.03
2023-02-11T16:39:56.856Z,9.99
2023-02-11T16:42:23.757Z,9.98
2023-02-11T16:44:50.484Z,9.93
2023-02-11T16:47:23.228Z,9.93
2023-02-11T16:49:50.407Z,9.90
2023-02-11T16:52:19.970Z,9.88
2023-02-11T16:54:46.752Z,9.86
2023-02-11T16:57:19.299Z,9.85
2023-02-11T16:59:46.499Z,9.84
2023-02-11T17:02:18.620Z,9.82
2023-02-11T17:04:45.925Z,9.81
2023-02-11T17:07:13.239Z,9.78
2023-02-11T17:09:40.281Z,9.77
2023-02-11T17:12:07.642Z,9.74
2023-02-11T17:14:34.356Z,9.72
2023-02-11T17:17:01.830Z,9.71
2023-02-11T17:19:28.807Z,9.69
2023-02-11T17:21:55.521Z,9.69
2023-02-11T17:24:22.698Z,9.68
2023-02-11T17:26:49.886Z,9.66
2023-02-11T17:29:20.738Z,9.64
2023-02-11T17:31:47.503Z,9.62
2023-02-11T17:34:14.926Z,9.62
2023-02-11T17:36:41.711Z,9.60
2023-02-11T17:39:08.829Z,9.60
2023-02-11T17:41:37.378Z,9.58
2023-02-11T17:44:04.410Z,9.56
2023-02-11T17:46:32.296Z,9.54
2023-02-11T17:49:00.423Z,9.54
2023-02-11T17:51:33.239Z,9.52
2023-02-11T17:54:03.134Z,9.51
2023-02-11T17:56:33.206Z,9.50
2023-02-11T17:59:00.084Z,9.49
2023-02-11T18:01:27.682Z,9.48
2023-02-11T18:03:54.598Z,9.47
2023-02-11T18:06:21.886Z,9.46
2023-02-11T18:08:49.265Z,9.43
2023-02-11T18:11:16.753Z,9.42
2023-02-11T18:13:45.309Z,9.39
2023-02-11T18:16:15.930Z,9.40
2023-02-11T18:18:43.637Z,9.38
2023-02-11T18:21:18.549Z,9.37
2023-02-11T18:23:45.658Z,9.35
2023-02-11T18:26:14.177Z,9.32
2023-02-11T18:28:45.294Z,9.33
2023-02-11T18:31:12.698Z,9.32
2023-02-11T18:33:40.636Z,9.31
2023-02-11T18:36:13.022Z,9.29
2023-02-11T18:38:40.752Z,9.28
2023-02-11T18:41:08.423Z,9.26
2023-02-11T18:43:35.269Z,9.28
2023-02-11T18:46:03.237Z,9.26
2023-02-11T18:48:30.008Z,9.26
2023-02-11T18:50:56.777Z,9.26
2023-02-11T18:53:24.776Z,9.25
2023-02-11T18:55:53.105Z,9.24
2023-02-11T18:58:21.494Z,9.22
2023-02-11T19:00:49.190Z,9.22
2023-02-11T19:03:16.012Z,9.21
2023-02-11T19:05:43.692Z,9.18
2023-02-11T19:08:10.891Z,9.19
2023-02-11T19:10:42.243Z,9.19
2023-02-11T19:13:09.328Z,9.18
2023-02-11T19:15:44.520Z,9.17
2023-02-11T19:18:12.978Z,9.15
2023-02-11T19:20:40.668Z,9.12
2023-02-11T19:23:07.970Z,9.10
2023-02-11T19:25:35.027Z,9.10
2023-02-11T19:28:02.784Z,9.10
2023-02-11T19:30:29.771Z,9.07
2023-02-11T19:32:57.887Z,9.03
2023-02-11T19:35:25.724Z,9.02
2023-02-11T19:37:52.642Z,9.02
2023-02-11T19:40:21.355Z,9.02
2023-02-11T19:42:48.291Z,9.01
2023-02-11T19:45:15.276Z,8.99
2023-02-11T19:47:42.158Z,9.00
2023-02-11T19:50:09.382Z,8.99
2023-02-11T19:52:40.475Z,8.99
2023-02-11T19:55:08.009Z,8.99
2023-02-11T19:57:36.201Z,9.00
2023-02-11T20:00:03.314Z,8.99
2023-02-11T20:02:31.283Z,8.99
2023-02-11T20:04:58.119Z,8.98
2023-02-11T20:07:24.871Z,8.98
2023-02-11T20:09:53.752Z,8.96
2023-02-11T20:12:20.483Z,8.94
2023-02-11T20:14:47.224Z,8.94
2023-02-11T20:17:16.277Z,8.94
2023-02-11T20:19:43.221Z,8.93
2023-02-11T20:22:09.909Z,8.92
2023-02-11T20:24:36.598Z,8.92
2023-02-11T20:27:03.301Z,8.91
2023-02-11T20:29:31.878Z,8.91
2023-02-11T20:31:58.792Z,8.90
2023-02-11T20:34:25.632Z,8.90
2023-02-11T20:36:52.853Z,8.91
2023-02-11T20:39:22.469Z,8.90
2023-02-11T20:41:50.118Z,8.91
2023-02-11T20:44:16.947Z,8.91
2023-02-11T20:46:49.335Z,8.91
2023-02-11T20:49:19.205Z,8.90
2023-02-11T20:51:47.893Z,8.89
2023-02-11T20:54:17.278Z,8.90
2023-02-11T20:56:46.785Z,8.88
2023-02-11T20:59:15.208Z,8.88
2023-02-11T21:01:48.512Z,8.89
2023-02-11T21:04:18.412Z,8.87
2023-02-11T21:06:47.825Z,8.87
2023-02-11T21:09:19.983Z,8.84
2023-02-11T21:11:46.900Z,8.82
2023-02-11T21:14:13.808Z,8.83
2023-02-11T21:16:41.189Z,8.84
2023-02-11T21:19:07.993Z,8.83
2023-02-11T21:21:36.333Z,8.83
2023-02-11T21:24:03.878Z,8.83
2023-02-11T21:26:30.668Z,8.83
2023-02-11T21:28:57.566Z,8.83
2023-02-11T21:31:27.232Z,8.82
2023-02-11T21:33:57.418Z,8.82
2023-02-11T21:36:24.345Z,8.82
2023-02-11T21:38:51.221Z,8.81
2023-02-11T21:41:21.337Z,8.82
2023-02-11T21:43:49.009Z,8.82
2023-02-11T21:46:16.795Z,8.81
2023-02-11T21:48:43.776Z,8.80
2023-02-11T21:51:19.815Z,8.80
2023-02-11T21:53:47.089Z,8.79
2023-02-11T21:56:16.931Z,8.79
2023-02-11T21:58:45.228Z,8.79
2023-02-11T22:01:17.200Z,8.77
2023-02-11T22:03:45.220Z,8.78
2023-02-11T22:06:18.023Z,8.78
2023-02-11T22:08:45.057Z,8.77
2023-02-11T22:11:13.033Z,8.75
2023-02-11T22:13:43.320Z,8.74
2023-02-11T22:16:13.403Z,8.72
2023-02-11T22:18:40.798Z,8.72
2023-02-11T22:21:11.191Z,8.73
2023-02-11T22:23:39.613Z,8.73
2023-02-11T22:26:28.344Z,8.73
2023-02-11T22:28:55.995Z,8.74
2023-02-11T22:31:29.249Z,8.75
2023-02-11T22:33:56.662Z,8.76
2023-02-11T22:36:29.188Z,8.75
2023-02-11T22:38:57.139Z,8.76
2023-02-11T22:41:27.075Z,8.76
2023-02-11T22:43:54.251Z,8.77
2023-02-11T22:46:23.632Z,8.77
2023-02-11T22:48:50.875Z,8.76
2023-02-11T22:51:21.002Z,8.75
2023-02-11T22:54:03.404Z,8.74
2023-02-11T22:56:31.602Z,8.76
2023-02-11T22:59:01.630Z,8.77
2023-02-11T23:01:29.924Z,8.76
2023-02-11T23:03:56.812Z,8.76
2023-02-11T23:06:23.508Z,8.75
2023-02-11T23:08:50.239Z,8.75
2023-02-11T23:11:20.657Z,8.74
2023-02-11T23:13:49.942Z,8.75
2023-02-11T23:16:19.561Z,8.74
2023-02-11T23:18:48.552Z,8.73
2023-02-11T23:21:23.405Z,8.72
2023-02-11T23:24:02.227Z,8.70
2023-02-11T23:26:29.892Z,8.70
2023-02-11T23:28:59.489Z,8.71
2023-02-11T23:31:28.560Z,8.70
2023-02-11T23:33:55.688Z,8.69
2023-02-11T23:36:23.362Z,8.69
2023-02-11T23:38:50.076Z,8.67
2023-02-11T23:41:17.426Z,8.66
2023-02-11T23:43:44.378Z,8.65
2023-02-11T23:46:11.504Z,8.66
2023-02-11T23:48:40.488Z,8.65
2023-02-11T23:51:09.905Z,8.65
2023-02-11T23:53:37.839Z,8.63
2023-02-11T23:56:10.429Z,8.62
2023-02-11T23:58:37.454Z,8.61
